Time;durP1;ratioP1;P1;durP2;ratioP2;P2;SDS_P1;SDS_P2;PMS_P1;PMS_P2;Temp;Humidity;BMP_temperature;BMP_pressure;BME280_temperature;BME280_humidity;BME280_pressure;Samples;Min_cycle;Max_cycle;Signal;HPM_P1;HPM_P2
2023/10/24 00:08:33;;;;;;;1999.90;999.90;;;;;;;9.30;100.00;96933.66;18566643;31;20060;-58
2023/10/24 00:18:36;;;;;;;1999.90;999.90;;;;;;;9.29;100.00;96943.66;18565675;31;20105;-58
2023/10/24 00:28:38;;;;;;;1999.90;999.90;;;;;;;9.25;100.00;96914.78;18565100;31;20049;-58
2023/10/24 00:38:41;;;;;;;1999.90;999.90;;;;;;;9.32;100.00;96961.97;18564389;31;20075;-58
2023/10/24 00:48:43;;;;;;;1999.90;999.90;;;;;;;9.28;100.00;96970.91;18562666;32;20460;-58
2023/10/24 00:58:48;;;;;;;1999.90;999.90;;;;;;;9.22;100.00;96939.63;18563096;32;20061;-58
2023/10/24 01:08:50;;;;;;;;;;;;;;;9.18;100.00;96893.53;18561720;32;20049;-58
2023/10/24 01:18:53;;;;;;;1999.90;999.90;;;;;;;9.18;100.00;96903.53;18561488;32;20416;-58
2023/10/24 01:28:55;;;;;;;1999.90;999.90;;;;;;;9.07;100.00;96890.13;18561269;31;20053;-58
2023/10/24 01:38:57;;;;;;;1999.90;999.90;;;;;;;9.26;100.00;96892.97;18560958;31;20059;-58
2023/10/24 01:49:00;;;;;;;1999.90;999.90;;;;;;;9.30;100.00;96904.81;18626076;31;20118;-58
2023/10/24 01:59:04;;;;;;;1999.90;999.90;;;;;;;9.22;100.00;96894.59;18626390;31;20097;-58
2023/10/24 02:09:06;;;;;;;1999.90;999.90;;;;;;;9.20;100.00;96918.34;18647240;31;20120;-58
2023/10/24 02:19:09;;;;;;;1999.90;999.90;;;;;;;9.32;100.00;96907.22;18632539;31;20143;-58
2023/10/24 02:29:11;;;;;;;1999.90;999.90;;;;;;;9.31;100.00;96927.97;18646253;31;20091;-58
2023/10/24 02:39:14;;;;;;;1999.90;999.90;;;;;;;9.24;100.00;96878.16;18631547;31;20382;-58
2023/10/24 02:49:16;;;;;;;1999.90;999.90;;;;;;;9.43;100.00;96872.88;18646129;31;20056;-58
2023/10/24 02:59:19;;;;;;;1999.90;999.90;;;;;;;9.44;100.00;96864.50;18619040;31;20064;-58
2023/10/24 03:09:22;;;;;;;1999.90;999.90;;;;;;;9.53;100.00;96896.28;18631707;31;20097;-58
2023/10/24 03:19:26;;;;;;;1999.90;999.90;;;;;;;9.60;100.00;96880.56;18627591;31;20044;-58
2023/10/24 03:29:33;;;;;;;1999.90;999.90;;;;;;;9.44;100.00;96829.41;18607062;31;20049;-58
2023/10/24 03:39:36;;;;;;;1999.90;999.90;;;;;;;9.62;100.00;96840.56;18633195;31;20161;-58
2023/10/24 03:49:38;;;;;;;1999.90;999.90;;;;;;;9.48;100.00;96910.59;18632960;31;20058;-58
2023/10/24 03:59:41;;;;;;;1999.90;999.90;;;;;;;9.63;100.00;96869.19;18618001;31;20056;-58
2023/10/24 04:09:43;;;;;;;1999.90;999.90;;;;;;;9.70;100.00;96842.66;18631663;31;20394;-58
2023/10/24 04:19:46;;;;;;;1999.90;999.90;;;;;;;9.68;100.00;96861.06;18631347;31;20049;-58
2023/10/24 04:29:48;;;;;;;1999.90;999.90;;;;;;;9.70;100.00;96825.66;18629980;31;20067;-59
2023/10/24 04:39:50;;;;;;;1999.90;999.90;;;;;;;9.74;100.00;96837.50;18615362;31;20151;-58
2023/10/24 04:49:53;;;;;;;1999.90;999.90;;;;;;;9.68;100.00;96785.47;18614527;31;20447;-58
2023/10/24 04:59:55;;;;;;;1999.90;999.90;;;;;;;9.75;100.00;96769.72;18614369;31;20368;-58
2023/10/24 05:09:58;;;;;;;1999.90;999.90;;;;;;;9.82;100.00;96796.38;18613422;31;20133;-59
2023/10/24 05:20:07;;;;;;;1999.90;999.90;;;;;;;9.84;100.00;96778.03;18600115;31;20110;-58
2023/10/24 05:30:10;;;;;;;1999.90;999.90;;;;;;;9.91;100.00;96791.97;18627310;31;20099;-58
2023/10/24 05:40:12;;;;;;;1999.90;999.90;;;;;;;9.94;100.00;96791.41;18611233;31;20044;-58
2023/10/24 05:50:17;;;;;;;1999.90;999.90;;;;;;;9.86;100.00;96802.81;18626006;31;20048;-58
2023/10/24 06:00:20;;;;;;;1999.90;999.90;;;;;;;9.98;100.00;96784.31;18618732;31;20052;-58
2023/10/24 06:10:23;;;;;;;1999.90;999.90;;;;;;;9.96;100.00;96774.91;18624995;31;20049;-59
2023/10/24 06:20:25;;;;;;;1999.90;999.90;;;;;;;10.03;100.00;96791.59;18624678;31;20056;-59
2023/10/24 06:30:28;;;;;;;1999.90;999.90;;;;;;;10.06;100.00;96807.22;18624980;31;20101;-58
2023/10/24 06:40:31;;;;;;;1999.90;999.90;;;;;;;10.12;100.00;96822.25;18623863;31;20104;-59
2023/10/24 06:50:34;;;;;;;1999.90;999.90;;;;;;;10.17;100.00;96814.09;18624448;31;20074;-59
2023/10/24 07:00:37;;;;;;;1999.90;999.90;;;;;;;10.20;100.00;96844.34;18635849;31;20096;-59
2023/10/24 07:10:40;;;;;;;1999.90;999.90;;;;;;;10.21;100.00;96835.12;18621232;31;20404;-59
2023/10/24 07:20:43;;;;;;;1999.90;999.90;;;;;;;10.29;100.00;96839.88;18634510;31;20436;-59
2023/10/24 07:30:51;;;;;;;1999.90;999.90;;;;;;;10.36;100.00;96845.78;18633975;31;20131;-59
2023/10/24 07:40:54;;;;;;;1999.90;999.90;;;;;;;10.38;100.00;96857.09;18618832;31;20504;-59
2023/10/24 07:50:58;;;;;;;1999.90;999.90;;;;;;;10.47;100.00;96860.78;18618700;31;20361;-59
2023/10/24 08:01:01;;;;;;;1999.90;999.90;;;;;;;10.57;100.00;96865.25;18631672;31;20103;-59
2023/10/24 08:11:04;;;;;;;1999.90;999.90;;;;;;;10.59;100.00;96857.69;18617301;31;20057;-59
2023/10/24 08:21:07;;;;;;;1999.90;999.90;;;;;;;10.69;100.00;96859.44;18631112;31;20057;-59
2023/10/24 08:31:10;;;;;;;1999.90;999.90;;;;;;;10.76;100.00;96840.94;18590205;31;20049;-59
2023/10/24 08:41:14;;;;;;;1999.90;999.90;;;;;;;10.82;100.00;96852.50;18629415;31;20107;-58
2023/10/24 08:51:18;;;;;;;1999.90;999.90;;;;;;;10.85;100.00;96855.44;18629062;31;20103;-59
2023/10/24 09:01:21;;;;;;;1999.90;999.90;;;;;;;10.92;100.00;96851.53;18628647;31;20104;-59
2023/10/24 09:11:53;;;;;;;1999.90;999.90;;;;;;;10.94;100.00;96857.47;18612582;31;20067;-59
2023/10/24 09:21:57;;;;;;;1999.90;999.90;;;;;;;11.00;100.00;96867.13;18627713;31;20060;-58
2023/10/24 09:32:18;;;;;;;1999.90;999.90;;;;;;;11.08;100.00;96866.47;18611684;31;20048;-58
2023/10/24 09:42:29;;;;;;;1999.90;999.90;;;;;;;11.06;100.00;96865.12;18626462;31;20475;-59
2023/10/24 09:52:38;;;;;;;1999.90;999.90;;;;;;;11.21;100.00;96862.22;18612756;31;20475;-59
2023/10/24 10:02:44;;;;;;;1999.90;999.90;;;;;;;11.35;100.00;96859.56;18625623;31;20093;-58
2023/10/24 10:12:51;;;;;;;1999.90;999.90;;;;;;;11.44;100.00;96849.69;18625259;31;20123;-58
2023/10/24 10:23:24;;;;;;;1999.90;999.90;;;;;;;11.60;100.00;96836.69;18615350;31;20088;-59
2023/10/24 10:33:28;;;;;;;1999.90;999.90;;;;;;;11.69;100.00;96824.06;18631394;31;20056;-58
2023/10/24 10:43:36;;;;;;;1999.90;999.90;;;;;;;11.81;100.00;96825.50;18636791;31;20096;-58
2023/10/24 10:53:58;;;;;;;1999.90;999.90;;;;;;;11.98;100.00;96830.37;18636365;31;20052;-59
2023/10/24 11:04:01;;;;;;;1999.90;999.90;;;;;;;12.05;100.00;96808.31;18636073;31;20504;-59
2023/10/24 11:14:20;;;;;;;1999.90;999.90;;;;;;;12.10;100.00;96797.34;18621139;31;20074;-59
2023/10/24 11:24:23;;;;;;;1999.90;999.90;;;;;;;12.29;100.00;96780.97;18627849;31;20452;-59
2023/10/24 11:34:26;;;;;;;1999.90;999.90;;;;;;;12.34;100.00;96789.00;18592854;31;20056;-59
2023/10/24 11:44:29;;;;;;;1999.90;999.90;;;;;;;12.24;100.00;96772.94;18633230;31;20080;-58
2023/10/24 11:54:32;;;;;;;1999.90;999.90;;;;;;;12.16;100.00;96775.28;18632569;31;20108;-59
2023/10/24 12:04:36;;;;;;;1999.90;999.90;;;;;;;12.33;100.00;96765.72;18617801;31;20515;-59
2023/10/24 12:14:42;;;;;;;1999.90;999.90;;;;;;;12.45;100.00;96760.56;18617324;31;20104;-59
2023/10/24 12:24:45;;;;;;;1999.90;999.90;;;;;;;12.57;100.00;96765.47;18617057;31;20086;-58
2023/10/24 12:34:48;;;;;;;1999.90;999.90;;;;;;;12.78;100.00;96759.59;18630169;31;20052;-58
2023/10/24 12:44:53;;;;;;;1999.90;999.90;;;;;;;12.74;100.00;96758.59;18629331;31;20568;-59
2023/10/24 12:54:57;;;;;;;1999.90;999.90;;;;;;;12.75;100.00;96761.00;18614950;31;20060;-58
2023/10/24 13:05:00;;;;;;;1999.90;999.90;;;;;;;12.79;100.00;96747.66;18628333;31;20075;-59
2023/10/24 13:15:04;;;;;;;1999.90;999.90;;;;;;;12.98;100.00;96728.47;18627421;31;20052;-58
2023/10/24 13:25:07;;;;;;;1999.90;999.90;;;;;;;13.23;100.00;96727.81;18627360;31;20064;-59
2023/10/24 13:35:11;;;;;;;1999.90;999.90;;;;;;;13.50;100.00;96722.59;18626732;31;20059;-59
2023/10/24 13:45:17;;;;;;;1999.90;999.90;;;;;;;13.53;100.00;96714.59;18625834;31;20090;-59
2023/10/24 13:55:21;;;;;;;1999.90;999.90;;;;;;;13.68;100.00;96715.31;18625184;31;20070;-59
2023/10/24 14:05:26;;;;;;;1999.90;999.90;;;;;;;13.66;100.00;96712.09;18605098;31;20052;-58
2023/10/24 14:15:29;;;;;;;1999.90;999.90;;;;;;;13.76;100.00;96713.72;18625060;31;20096;-58
2023/10/24 14:25:32;;;;;;;1999.90;999.90;;;;;;;13.70;100.00;96708.47;18624948;31;20064;-58
2023/10/24 14:35:35;;;;;;;1999.90;999.90;;;;;;;13.47;100.00;96702.28;18624552;31;20044;-58
2023/10/24 14:45:40;;;;;;;1999.90;999.90;;;;;;;13.20;100.00;96708.66;18624106;31;20052;-58
2023/10/24 14:55:44;;;;;;;1999.90;999.90;;;;;;;12.69;100.00;96729.69;18624080;31;20056;-59
2023/10/24 15:05:48;;;;;;;1999.90;999.90;;;;;;;12.53;100.00;96737.38;18623289;31;20045;-58
2023/10/24 15:15:53;;;;;;;1999.90;999.90;;;;;;;12.48;100.00;96734.78;18635052;31;20422;-59
2023/10/24 15:25:57;;;;;;;1999.90;999.90;;;;;;;12.51;100.00;96740.41;18635120;31;20067;-58
2023/10/24 15:36:01;;;;;;;1999.90;999.90;;;;;;;12.52;100.00;96736.56;18633974;31;20079;-59
2023/10/24 15:46:07;;;;;;;1999.90;999.90;;;;;;;12.32;100.00;96732.41;18633165;31;20048;-59
2023/10/24 15:56:11;;;;;;;1999.90;999.90;;;;;;;12.39;100.00;96726.56;18617970;31;20075;-59
2023/10/24 16:06:16;;;;;;;1999.90;999.90;;;;;;;12.19;100.00;96727.81;18617910;31;20066;-58
2023/10/24 16:16:19;;;;;;;1999.90;999.90;;;;;;;12.17;100.00;96736.25;18631404;31;20063;-59
2023/10/24 16:26:23;;;;;;;1999.90;999.90;;;;;;;11.81;100.00;96728.81;18630409;31;20107;-58
2023/10/24 16:36:25;;;;;;;1999.90;999.90;;;;;;;11.78;100.00;96721.28;18630409;31;20056;-58
2023/10/24 16:46:29;;;;;;;1999.90;999.90;;;;;;;11.55;100.00;96714.94;18629320;31;20108;-58
2023/10/24 16:56:32;;;;;;;1999.90;999.90;;;;;;;11.39;100.00;96710.91;18628980;31;20056;-58
2023/10/24 17:06:35;;;;;;;1999.90;999.90;;;;;;;11.26;100.00;96723.31;18614005;31;20095;-58
2023/10/24 17:16:43;;;;;;;1999.90;999.90;;;;;;;11.15;100.00;96730.81;18627675;31;20083;-58
2023/10/24 17:26:45;;;;;;;1999.90;999.90;;;;;;;11.15;100.00;96755.97;18627124;31;20056;-58
2023/10/24 17:36:48;;;;;;;1999.90;999.90;;;;;;;11.05;100.00;96772.38;18598952;31;20141;-58
2023/10/24 17:46:51;;;;;;;1999.90;999.90;;;;;;;10.98;100.00;96780.84;18625917;31;20051;-58
2023/10/24 17:56:57;;;;;;;1999.90;999.90;;;;;;;10.93;100.00;96780.12;18625886;31;20100;-58
2023/10/24 18:07:00;;;;;;;1999.90;999.90;;;;;;;10.85;100.00;96787.81;18625701;31;20081;-58
2023/10/24 18:17:22;;;;;;;1999.90;999.90;;;;;;;10.84;100.00;96794.31;18613510;31;20116;-58
2023/10/24 18:27:25;;;;;;;1999.90;999.90;;;;;;;10.83;100.00;96800.03;18625117;31;20099;-58
2023/10/24 18:37:28;;;;;;;1999.90;999.90;;;;;;;10.63;100.00;96795.72;18618074;31;20132;-58
2023/10/24 18:47:32;;;;;;;1999.90;999.90;;;;;;;10.68;100.00;96790.25;18566045;32;20068;-58
2023/10/24 18:57:35;;;;;;;1999.90;999.90;;;;;;;10.61;100.00;96781.69;18569831;32;20057;-58
2023/10/24 19:07:39;;;;;;;1999.90;999.90;;;;;;;10.59;100.00;96778.47;18569226;32;20100;-58
2023/10/24 19:17:42;;;;;;;1999.90;999.90;;;;;;;10.53;100.00;96785.06;18569867;31;20052;-58
2023/10/24 19:27:46;;;;;;;1999.90;999.90;;;;;;;10.47;100.00;96771.59;18567994;32;20045;-58
2023/10/24 19:37:51;;;;;;;1999.90;999.90;;;;;;;10.43;100.00;96785.97;18568626;31;20102;-58
2023/10/24 19:48:04;;;;;;;1999.90;999.90;;;;;;;10.38;100.00;96775.25;18625611;31;20133;-58
2023/10/24 19:58:08;;;;;;;1999.90;999.90;;;;;;;10.27;100.00;96778.03;18632098;31;20052;-58
2023/10/24 20:08:12;;;;;;;1999.90;999.90;;;;;;;10.22;100.00;96790.81;18632218;31;20092;-58
2023/10/24 20:18:15;;;;;;;1999.90;999.90;;;;;;;10.23;100.00;96797.81;18631639;31;20108;-58
2023/10/24 20:28:19;;;;;;;1999.90;999.90;;;;;;;10.23;100.00;96803.22;18624227;31;20092;-58
2023/10/24 20:38:22;;;;;;;1999.90;999.90;;;;;;;10.08;100.00;96798.81;18630235;31;20052;-58
2023/10/24 20:48:25;;;;;;;1999.90;999.90;;;;;;;9.91;100.00;96816.28;18562949;32;20391;-58
2023/10/24 20:58:28;;;;;;;1999.90;999.90;;;;;;;9.87;100.00;96809.03;18563561;31;20083;-58
2023/10/24 21:08:31;;;;;;;1999.90;999.90;;;;;;;9.83;100.00;96815.00;18563097;31;20076;-58
2023/10/24 21:18:33;;;;;;;1999.90;999.90;;;;;;;9.82;100.00;96818.00;18562566;31;20119;-58
2023/10/24 21:28:39;;;;;;;1999.90;999.90;;;;;;;9.76;100.00;96819.94;18561819;32;20079;-58
2023/10/24 21:38:42;;;;;;;1999.90;999.90;;;;;;;9.73;100.00;96808.91;18561610;31;20098;-58
2023/10/24 21:48:44;;;;;;;1999.90;999.90;;;;;;;9.63;100.00;96815.19;18559864;32;20120;-58
2023/10/24 21:58:47;;;;;;;1999.90;999.90;;;;;;;9.63;100.00;96821.44;18560356;31;20068;-58
2023/10/24 22:08:50;;;;;;;1999.90;999.90;;;;;;;9.60;100.00;96815.78;18560725;31;20040;-58
2023/10/24 22:18:53;;;;;;;1999.90;999.90;;;;;;;9.52;100.00;96813.69;18563922;31;20057;-58
2023/10/24 22:28:55;;;;;;;1999.90;999.90;;;;;;;9.43;100.00;96800.81;18571752;32;20045;-58
2023/10/24 22:38:58;;;;;;;1999.90;999.90;;;;;;;9.33;100.00;96782.84;18572105;32;20376;-58
2023/10/24 22:49:01;;;;;;;1999.90;999.90;;;;;;;9.15;100.00;96765.47;18636489;31;20096;-58
2023/10/24 22:59:03;;;;;;;1999.90;999.90;;;;;;;8.98;100.00;96762.37;18636490;31;20369;-58
2023/10/24 23:09:06;;;;;;;1999.90;999.90;;;;;;;8.90;100.00;96752.19;18614647;31;20052;-58
2023/10/24 23:19:08;;;;;;;1999.90;999.90;;;;;;;8.76;100.00;96758.22;18620960;31;20048;-58
2023/10/24 23:29:10;;;;;;;1999.90;999.90;;;;;;;8.86;100.00;96764.63;18619422;31;20360;-58
2023/10/24 23:39:13;;;;;;;1999.90;999.90;;;;;;;8.85;100.00;96758.41;18633716;31;20057;-58
2023/10/24 23:49:15;;;;;;;1999.90;999.90;;;;;;;8.74;100.00;96757.69;18633694;31;20044;-58
2023/10/24 23:59:18;;;;;;;1999.90;999.90;;;;;;;8.71;100.00;96742.06;18618532;31;20458;-58
